Thunder radar more information blitzortung!


Radar de pluja more information rain snow radar


Visita la nostra xarxa de llocs de meteo:

Template documentation
and downloads

And another site



No particular awareness of the weather is required.    There are no Weather-warnings

Pagina Historial Weather Underground text

Diari Resum Abril 16, 2016 Unitats:  Mètric    Imperial   Tant
« Previous Dia
SegĂźent Dia »
Diari Setmana Mensual Anual Personalitzada
  Maxima: Minima: Media:
Temperatura: 26.2 °C 11.9 °C 20.6 °C
Punt de rosada: 10.4 °C 5.3 °C 7.8 °C
Humitat: 73 % 31 % 45 %
Wind Speed: 27.8 km/h 0.0 km/h 11.6 km/h
RĂ fegues de vent: 27.8 km/h - -
Vent:- - WSW
Pression baro: 1011.7 hPa 1007.0 hPa -
Precipitacions: 0.0 mm    
Historical Graphs
 
 
Dades de taula per Abril 16, 2016
Temps Temperatura Punt de rosada Pression baro Vent Wind Speed RĂ fegues de vent Humitat Rainfall Rate (Hourly)
00:02 13.6 °C 8.0 °C 1010.0 hPa NW 3.7 km/h 3.7 km/h 69 % 0.0 mm
10:59 11.9 °C 7.2 °C 1010.0 hPa WNW 1.9 km/h   73 % 0.0 mm
11:04 11.9 °C 7.2 °C 1010.0 hPa WNW 1.9 km/h   73 % 0.0 mm
11:09 11.9 °C 7.2 °C 1010.0 hPa WNW 1.9 km/h   73 % 0.0 mm
11:14 11.9 °C 7.2 °C 1010.0 hPa WNW 1.9 km/h   73 % 0.0 mm
11:19 11.9 °C 7.2 °C 1010.0 hPa WNW 1.9 km/h   73 % 0.0 mm
11:24 11.9 °C 7.2 °C 1010.0 hPa WNW 1.9 km/h   73 % 0.0 mm
11:29 11.9 °C 7.2 °C 1010.0 hPa WNW 1.9 km/h   73 % 0.0 mm
11:34 11.9 °C 7.2 °C 1010.0 hPa WNW 1.9 km/h   73 % 0.0 mm
11:39 11.9 °C 7.2 °C 1010.0 hPa WNW 1.9 km/h   73 % 0.0 mm
11:44 11.9 °C 7.2 °C 1010.0 hPa WNW 1.9 km/h   73 % 0.0 mm
11:49 11.9 °C 7.2 °C 1010.0 hPa WNW 1.9 km/h   73 % 0.0 mm
11:59 11.9 °C 7.2 °C 1010.0 hPa WNW 1.9 km/h   73 % 0.0 mm
12:04 11.9 °C 7.2 °C 1010.0 hPa WNW 1.9 km/h   73 % 0.0 mm
12:09 11.9 °C 7.2 °C 1010.0 hPa WNW 1.9 km/h   73 % 0.0 mm
12:14 23.2 °C 9.6 °C 1011.7 hPa WSW 5.6 km/h 5.6 km/h 42 % 0.0 mm
12:19 23.4 °C 9.4 °C 1011.7 hPa WSW 9.3 km/h 9.3 km/h 41 % 0.0 mm
12:24 23.1 °C 8.8 °C 1011.7 hPa WSW 14.8 km/h 14.8 km/h 40 % 0.0 mm
12:29 23.0 °C 9.1 °C 1011.7 hPa WNW 7.4 km/h 7.4 km/h 41 % 0.0 mm
12:34 23.2 °C 9.2 °C 1011.7 hPa ESE 9.3 km/h 9.3 km/h 41 % 0.0 mm
12:39 23.7 °C 9.7 °C 1011.7 hPa SW 9.3 km/h 9.3 km/h 41 % 0.0 mm
12:44 23.8 °C 9.4 °C 1011.7 hPa WSW 9.3 km/h 9.3 km/h 40 % 0.0 mm
12:49 24.5 °C 10.4 °C 1010.7 hPa North 5.6 km/h 5.6 km/h 41 % 0.0 mm
12:54 24.4 °C 9.9 °C 1010.7 hPa WSW 7.4 km/h 7.4 km/h 40 % 0.0 mm
12:59 24.5 °C 9.6 °C 1010.7 hPa North 9.3 km/h 9.3 km/h 39 % 0.0 mm
13:04 24.2 °C 9.4 °C 1010.7 hPa SW 13.0 km/h 13.0 km/h 39 % 0.0 mm
13:09 24.2 °C 9.4 °C 1010.7 hPa SW 3.7 km/h 5.0 km/h 39 % 0.0 mm
13:14 24.4 °C 9.6 °C 1010.7 hPa West 7.9 km/h 7.9 km/h 39 % 0.0 mm
13:19 24.4 °C 9.2 °C 1010.0 hPa WSW 11.1 km/h 11.1 km/h 38 % 0.0 mm
13:24 24.4 °C 9.2 °C 1010.0 hPa East 7.4 km/h 7.4 km/h 38 % 0.0 mm
13:29 24.4 °C 9.2 °C 1010.0 hPa NE 5.8 km/h 5.8 km/h 38 % 0.0 mm
13:34 25.1 °C 9.8 °C 1010.0 hPa East 5.6 km/h 5.6 km/h 38 % 0.0 mm
13:39 25.0 °C 8.9 °C 1010.0 hPa WNW 9.3 km/h 9.3 km/h 36 % 0.0 mm
13:44 25.0 °C 8.9 °C 1010.0 hPa SSW 11.9 km/h 11.9 km/h 36 % 0.0 mm
13:49 25.0 °C 8.9 °C 1010.0 hPa WSW 7.4 km/h 7.4 km/h 36 % 0.0 mm
13:54 25.8 °C 9.2 °C 1010.0 hPa WSW 9.3 km/h 9.3 km/h 35 % 0.0 mm
13:59 26.0 °C 8.9 °C 1010.0 hPa SW 14.8 km/h 14.8 km/h 34 % 0.0 mm
14:04 25.8 °C 9.2 °C 1010.0 hPa WSW 5.6 km/h 5.6 km/h 35 % 0.0 mm
14:09 25.8 °C 8.3 °C 1010.0 hPa SW 9.3 km/h 9.3 km/h 33 % 0.0 mm
14:14 25.9 °C 8.8 °C 1010.0 hPa West 9.3 km/h 9.3 km/h 34 % 0.0 mm
14:19 26.0 °C 8.9 °C 1010.0 hPa WSW 22.2 km/h 22.2 km/h 34 % 0.0 mm
14:24 26.0 °C 8.9 °C 1010.0 hPa SSW 14.8 km/h 14.8 km/h 34 % 0.0 mm
14:29 26.2 °C 9.5 °C 1010.0 hPa SW 13.0 km/h 13.0 km/h 35 % 0.0 mm
14:34 25.7 °C 9.5 °C 1010.0 hPa WSW 13.0 km/h 13.0 km/h 36 % 0.0 mm
14:39 25.7 °C 9.5 °C 1010.0 hPa SW 13.0 km/h 13.0 km/h 36 % 0.0 mm
14:44 25.6 °C 9.4 °C 1010.0 hPa South 13.0 km/h 13.0 km/h 36 % 0.0 mm
14:50 25.7 °C 9.5 °C 1009.0 hPa West 16.7 km/h 16.7 km/h 36 % 0.0 mm
14:55 25.4 °C 9.2 °C 1009.0 hPa SE 16.7 km/h 16.7 km/h 36 % 0.0 mm
15:00 25.5 °C 9.3 °C 1009.0 hPa SW 20.4 km/h 20.4 km/h 36 % 0.0 mm
15:05 25.0 °C 8.9 °C 1009.0 hPa SW 14.8 km/h 14.8 km/h 36 % 0.0 mm
15:10 25.1 °C 9.0 °C 1009.0 hPa SW 16.9 km/h 16.9 km/h 36 % 0.0 mm
15:15 25.0 °C 8.9 °C 1009.0 hPa SSW 9.3 km/h 9.3 km/h 36 % 0.0 mm
15:20 24.7 °C 9.0 °C 1009.0 hPa West 22.2 km/h 22.2 km/h 37 % 0.0 mm
15:30 24.6 °C 8.9 °C 1009.0 hPa SSW 14.0 km/h 14.0 km/h 37 % 0.0 mm
15:35 24.5 °C 8.4 °C 1009.0 hPa SSW 14.8 km/h 14.8 km/h 36 % 0.0 mm
15:40 24.6 °C 8.6 °C 1009.0 hPa SW 13.0 km/h 13.0 km/h 36 % 0.0 mm
15:45 24.6 °C 8.6 °C 1009.0 hPa WSW 18.5 km/h 18.5 km/h 36 % 0.0 mm
15:50 24.4 °C 7.9 °C 1009.0 hPa SW 20.1 km/h 20.1 km/h 35 % 0.0 mm
15:55 24.6 °C 8.1 °C 1009.0 hPa WSW 19.5 km/h 19.5 km/h 35 % 0.0 mm
16:00 24.2 °C 7.3 °C 1009.0 hPa SSW 16.7 km/h 16.7 km/h 34 % 0.0 mm
16:05 24.5 °C 7.6 °C 1009.0 hPa SSW 18.5 km/h 18.5 km/h 34 % 0.0 mm
16:10 24.7 °C 7.3 °C 1009.0 hPa SW 22.0 km/h 22.0 km/h 33 % 0.0 mm
16:15 24.4 °C 6.2 °C 1009.0 hPa WSW 20.4 km/h 20.4 km/h 31 % 0.0 mm
16:20 24.3 °C 6.6 °C 1009.0 hPa SSW 24.1 km/h 24.1 km/h 32 % 0.0 mm
16:25 24.3 °C 6.6 °C 1009.0 hPa SW 22.2 km/h 22.2 km/h 32 % 0.0 mm
16:30 23.8 °C 5.7 °C 1008.0 hPa SSW 24.1 km/h 24.1 km/h 31 % 0.0 mm
16:35 23.8 °C 5.7 °C 1008.0 hPa SW 27.8 km/h 27.8 km/h 31 % 0.0 mm
16:40 23.8 °C 6.1 °C 1008.0 hPa West 14.8 km/h 14.8 km/h 32 % 0.0 mm
16:50 24.1 °C 6.4 °C 1008.0 hPa SSW 18.5 km/h 18.5 km/h 32 % 0.0 mm
16:55 24.0 °C 6.3 °C 1008.0 hPa SSW 13.0 km/h 13.0 km/h 32 % 0.0 mm
17:00 24.1 °C 6.4 °C 1008.0 hPa WSW 9.5 km/h 9.5 km/h 32 % 0.0 mm
17:05 24.1 °C 6.4 °C 1008.0 hPa WSW 11.9 km/h 11.9 km/h 32 % 0.0 mm
17:10 23.5 °C 5.8 °C 1008.0 hPa SW 25.9 km/h 25.9 km/h 32 % 0.0 mm
17:15 23.4 °C 5.8 °C 1008.0 hPa SW 20.9 km/h 20.9 km/h 32 % 0.0 mm
17:20 23.5 °C 5.8 °C 1007.0 hPa SSW 18.5 km/h 18.5 km/h 32 % 0.0 mm
17:25 23.6 °C 5.9 °C 1007.0 hPa WSW 16.7 km/h 16.7 km/h 32 % 0.0 mm
17:30 23.2 °C 5.6 °C 1008.0 hPa South 14.8 km/h 14.8 km/h 32 % 0.0 mm
17:35 23.1 °C 5.5 °C 1008.0 hPa SW 18.5 km/h 18.5 km/h 32 % 0.0 mm
17:40 22.8 °C 5.7 °C 1008.0 hPa WSW 22.2 km/h 22.2 km/h 33 % 0.0 mm
17:45 22.7 °C 5.6 °C 1008.0 hPa West 22.2 km/h 22.2 km/h 33 % 0.0 mm
17:50 22.3 °C 5.7 °C 1008.0 hPa SW 16.7 km/h 16.7 km/h 34 % 0.0 mm
17:55 22.3 °C 5.7 °C 1008.0 hPa SW 24.5 km/h 24.5 km/h 34 % 0.0 mm
18:00 22.1 °C 5.5 °C 1008.0 hPa West 24.1 km/h 24.1 km/h 34 % 0.0 mm
18:05 22.1 °C 5.5 °C 1008.0 hPa SW 16.7 km/h 16.7 km/h 34 % 0.0 mm
18:10 22.0 °C 5.4 °C 1008.0 hPa SW 22.2 km/h 22.2 km/h 34 % 0.0 mm
18:15 21.9 °C 5.7 °C 1008.0 hPa SW 20.4 km/h 20.4 km/h 35 % 0.0 mm
18:20 21.9 °C 5.3 °C 1008.0 hPa SSW 20.4 km/h 20.4 km/h 34 % 0.0 mm
18:25 21.8 °C 5.7 °C 1008.0 hPa WNW 16.7 km/h 16.7 km/h 35 % 0.0 mm
18:30 22.1 °C 5.9 °C 1008.0 hPa WSW 13.7 km/h 13.7 km/h 35 % 0.0 mm
18:35 21.9 °C 5.7 °C 1008.0 hPa SW 18.5 km/h 18.5 km/h 35 % 0.0 mm
18:45 21.6 °C 5.9 °C 1008.0 hPa SW 7.9 km/h 7.9 km/h 36 % 0.0 mm
18:50 21.5 °C 5.8 °C 1008.0 hPa WSW 9.3 km/h 9.3 km/h 36 % 0.0 mm
18:55 21.2 °C 5.9 °C 1008.0 hPa WSW 13.0 km/h 13.0 km/h 37 % 0.0 mm
19:00 21.0 °C 5.7 °C 1008.0 hPa SSW 27.8 km/h 27.8 km/h 37 % 0.0 mm
19:05 20.7 °C 5.5 °C 1008.0 hPa WSW 20.4 km/h 20.4 km/h 37 % 0.0 mm
19:10 20.6 °C 5.8 °C 1008.0 hPa SW 14.8 km/h 14.8 km/h 38 % 0.0 mm
19:15 20.6 °C 5.8 °C 1008.0 hPa WSW 13.0 km/h 13.0 km/h 38 % 0.0 mm
19:20 20.5 °C 5.7 °C 1008.0 hPa WSW 20.4 km/h 20.4 km/h 38 % 0.0 mm
19:25 20.5 °C 6.1 °C 1008.0 hPa WSW 9.3 km/h 9.3 km/h 39 % 0.0 mm
19:30 20.4 °C 6.3 °C 1008.0 hPa West 14.8 km/h 14.8 km/h 40 % 0.0 mm
19:40 19.7 °C 7.7 °C 1008.0 hPa NNW 11.1 km/h 11.1 km/h 46 % 0.0 mm
19:45 19.4 °C 8.1 °C 1008.0 hPa WSW 14.8 km/h 14.8 km/h 48 % 0.0 mm
19:50 19.2 °C 8.5 °C 1008.0 hPa WSW 14.8 km/h 14.8 km/h 50 % 0.0 mm
19:55 19.1 °C 8.4 °C 1008.0 hPa SSW 14.8 km/h 14.8 km/h 50 % 0.0 mm
20:00 18.9 °C 8.6 °C 1008.0 hPa SW 14.8 km/h 14.8 km/h 51 % 0.0 mm
20:10 18.7 °C 8.6 °C 1008.0 hPa South 11.1 km/h 11.1 km/h 52 % 0.0 mm
20:15 18.6 °C 8.8 °C 1008.0 hPa SW 16.7 km/h 16.7 km/h 53 % 0.0 mm
20:20 18.5 °C 8.7 °C 1008.0 hPa SW 13.0 km/h 13.0 km/h 53 % 0.0 mm
20:25 18.5 °C 8.7 °C 1008.0 hPa SW 9.3 km/h 10.3 km/h 53 % 0.0 mm
20:30 18.4 °C 8.9 °C 1008.0 hPa SW 9.3 km/h 9.3 km/h 54 % 0.0 mm
20:35 18.3 °C 8.8 °C 1008.0 hPa SSW 20.4 km/h 20.4 km/h 54 % 0.0 mm
20:40 18.2 °C 8.7 °C 1008.0 hPa SW 13.0 km/h 13.0 km/h 54 % 0.0 mm
20:45 18.2 °C 8.7 °C 1008.0 hPa WSW 16.9 km/h 16.9 km/h 54 % 0.0 mm
20:50 18.2 °C 8.7 °C 1008.0 hPa WSW 13.0 km/h 13.0 km/h 54 % 0.0 mm
20:55 18.1 °C 8.9 °C 1008.0 hPa SW 16.7 km/h 16.7 km/h 55 % 0.0 mm
21:00 18.1 °C 9.2 °C 1009.0 hPa WSW 13.0 km/h 13.0 km/h 56 % 0.0 mm
21:05 18.1 °C 9.2 °C 1009.0 hPa WSW 7.4 km/h 7.4 km/h 56 % 0.0 mm
21:10 18.0 °C 9.1 °C 1009.0 hPa WSW 11.1 km/h 11.1 km/h 56 % 0.0 mm
21:15 18.1 °C 9.2 °C 1010.0 hPa WNW 16.4 km/h 16.4 km/h 56 % 0.0 mm
21:20 18.0 °C 9.1 °C 1010.0 hPa SSW 7.9 km/h 7.9 km/h 56 % 0.0 mm
21:25 17.9 °C 9.0 °C 1010.0 hPa SSW 11.9 km/h 11.9 km/h 56 % 0.0 mm
21:30 17.9 °C 9.0 °C 1010.0 hPa WSW 9.3 km/h 9.3 km/h 56 % 0.0 mm
21:35 17.9 °C 9.0 °C 1010.0 hPa West 7.4 km/h 7.4 km/h 56 % 0.0 mm
21:40 18.0 °C 8.8 °C 1010.0 hPa WSW 7.4 km/h 7.4 km/h 55 % 0.0 mm
21:45 17.9 °C 8.4 °C 1010.0 hPa WSW 5.6 km/h 5.6 km/h 54 % 0.0 mm
21:50 17.8 °C 8.1 °C 1010.0 hPa WNW 9.7 km/h 9.7 km/h 53 % 0.0 mm
21:55 17.7 °C 8.0 °C 1010.0 hPa West 5.6 km/h 6.1 km/h 53 % 0.0 mm
22:00 17.6 °C 7.9 °C 1010.7 hPa SW 9.3 km/h 9.3 km/h 53 % 0.0 mm
22:05 17.4 °C 7.7 °C 1010.7 hPa West 5.6 km/h 5.6 km/h 53 % 0.0 mm
22:10 17.3 °C 7.6 °C 1010.7 hPa West 4.8 km/h 8.0 km/h 53 % 0.0 mm
22:15 17.2 °C 7.6 °C 1010.7 hPa WSW 3.2 km/h 8.0 km/h 53 % 0.0 mm
22:20 17.2 °C 7.6 °C 1010.7 hPa West 5.6 km/h 5.8 km/h 53 % 0.0 mm
22:25 17.1 °C 7.4 °C 1010.7 hPa WSW 1.6 km/h 9.7 km/h 53 % 0.0 mm
22:30 17.0 °C 7.3 °C 1011.1 hPa SW 1.6 km/h 8.0 km/h 53 % 0.0 mm
22:35 16.9 °C 7.5 °C 1011.7 hPa Calm   4.8 km/h 54 % 0.0 mm
22:40 16.9 °C 7.5 °C 1011.7 hPa West 1.6 km/h 11.3 km/h 54 % 0.0 mm
22:50 16.9 °C 7.5 °C 1010.7 hPa West 3.2 km/h 12.9 km/h 54 % 0.0 mm
22:55 16.8 °C 7.4 °C 1010.7 hPa WNW 3.2 km/h 4.8 km/h 54 % 0.0 mm
23:00 16.8 °C 7.4 °C 1011.1 hPa WSW 3.2 km/h 9.7 km/h 54 % 0.0 mm
23:05 16.8 °C 7.4 °C 1011.7 hPa West 3.2 km/h 9.7 km/h 54 % 0.0 mm
23:10 16.7 °C 7.3 °C 1011.7 hPa West 3.2 km/h 8.0 km/h 54 % 0.0 mm
23:15 16.7 °C 7.6 °C 1011.7 hPa WSW 8.0 km/h 9.7 km/h 55 % 0.0 mm
23:20 16.7 °C 7.6 °C 1010.7 hPa WNW 4.8 km/h 16.1 km/h 55 % 0.0 mm
23:25 16.6 °C 7.5 °C 1010.7 hPa WSW 5.6 km/h 5.6 km/h 55 % 0.0 mm
23:30 16.6 °C 7.5 °C 1010.7 hPa NW 7.4 km/h 7.4 km/h 55 % 0.0 mm
23:35 16.5 °C 7.7 °C 1010.7 hPa WNW 13.0 km/h 13.0 km/h 56 % 0.0 mm
23:40 16.5 °C 7.7 °C 1010.7 hPa WSW 5.6 km/h 5.6 km/h 56 % 0.0 mm
23:50 16.4 °C 7.6 °C 1010.7 hPa West 5.6 km/h 5.6 km/h 56 % 0.0 mm
23:55 16.3 °C 7.5 °C 1010.7 hPa WNW 6.4 km/h 6.4 km/h 56 % 0.0 mm
Meteo Sesrovires
Elogis d' Weather Underground - 3.25 mb

Guio original per  Jim McMurry - jmcmurry@mwt.net Adaptat per a la plantilla per  Wim van der Kuil - Leuven-Template.eu

Trobareu la nostra informacio del temps tambe a:

Weather Underground

AWEKAS